createdAt,value
2022-08-22T00:01:49.862Z,35.14
2022-08-22T00:02:42.775Z,10.20
2022-08-22T00:02:57.786Z,32.88
2022-08-22T00:03:07.477Z,29.70
2022-08-22T00:03:07.585Z,9.95
2022-08-22T00:05:11.658Z,36.23
2022-08-22T00:08:40.718Z,36.68
2022-08-22T00:11:53.763Z,35.70
2022-08-22T00:15:43.755Z,35.11
2022-08-22T00:19:13.224Z,35.12
2022-08-22T00:22:32.190Z,34.89
2022-08-22T00:25:53.428Z,34.58
2022-08-22T00:29:10.078Z,34.85
2022-08-22T00:32:18.976Z,34.12
2022-08-22T00:35:30.572Z,33.92
2022-08-22T00:38:39.557Z,33.75
2022-08-22T00:41:57.372Z,32.95
2022-08-22T00:45:37.621Z,32.43
2022-08-22T00:49:12.293Z,29.87
2022-08-22T00:52:24.709Z,27.41
2022-08-22T00:55:44.586Z,25.65
2022-08-22T00:59:23.256Z,24.39
2022-08-22T01:02:52.846Z,23.55
2022-08-22T01:06:24.679Z,22.87
2022-08-22T01:09:41.901Z,22.04
2022-08-22T01:13:24.507Z,21.34
2022-08-22T01:16:55.407Z,20.84
2022-08-22T01:20:12.010Z,20.28
2022-08-22T01:23:35.986Z,19.98
2022-08-22T01:26:58.499Z,19.72
2022-08-22T01:30:17.167Z,19.44
2022-08-22T01:33:57.602Z,19.45
2022-08-22T01:37:16.650Z,19.38
2022-08-22T01:40:58.587Z,19.13
2022-08-22T01:44:21.591Z,18.87
2022-08-22T01:47:27.533Z,18.62
2022-08-22T01:50:42.660Z,18.49
2022-08-22T01:54:05.194Z,18.49
2022-08-22T01:57:10.322Z,18.36
2022-08-22T02:00:19.708Z,18.42
2022-08-22T02:03:43.735Z,18.47
2022-08-22T02:06:59.944Z,18.57
2022-08-22T02:10:05.868Z,18.59
2022-08-22T02:13:14.720Z,18.45
2022-08-22T02:16:49.037Z,18.43
2022-08-22T02:20:20.439Z,18.31
2022-08-22T02:23:44.986Z,18.39
2022-08-22T02:27:07.674Z,18.60
2022-08-22T02:30:26.198Z,18.65
2022-08-22T02:33:39.060Z,18.61
2022-08-22T02:36:51.839Z,18.64
2022-08-22T02:40:14.308Z,18.69
2022-08-22T02:43:30.042Z,18.65
2022-08-22T02:46:52.325Z,18.78
2022-08-22T02:50:24.346Z,18.87
2022-08-22T02:53:55.379Z,19.02
2022-08-22T02:57:14.157Z,18.87
2022-08-22T03:00:31.448Z,18.96
2022-08-22T03:03:42.589Z,18.97
2022-08-22T03:07:00.942Z,19.15
2022-08-22T03:10:19.181Z,19.39
2022-08-22T03:13:54.150Z,19.44
2022-08-22T03:17:06.779Z,19.45
2022-08-22T03:20:37.671Z,19.59
2022-08-22T03:23:47.155Z,19.69
2022-08-22T03:27:32.458Z,19.87
2022-08-22T03:30:46.034Z,20.02
2022-08-22T03:34:27.838Z,20.20
2022-08-22T03:37:38.319Z,20.27
2022-08-22T03:40:53.668Z,20.24
2022-08-22T03:44:17.983Z,20.22
2022-08-22T03:47:43.322Z,20.14
2022-08-22T03:51:23.167Z,20.35
2022-08-22T03:54:47.117Z,20.48
2022-08-22T03:58:11.943Z,20.41
2022-08-22T04:02:02.105Z,20.42
2022-08-22T04:05:14.700Z,20.53
2022-08-22T04:08:38.132Z,20.78
2022-08-22T04:11:54.864Z,20.99
2022-08-22T04:15:01.162Z,20.86
2022-08-22T04:18:35.565Z,20.96
2022-08-22T04:21:59.785Z,21.24
2022-08-22T04:25:24.243Z,21.29
2022-08-22T04:28:35.462Z,21.26
2022-08-22T04:31:47.037Z,21.42
2022-08-22T04:34:52.904Z,21.51
2022-08-22T04:38:05.215Z,21.52
2022-08-22T04:41:25.676Z,21.56
2022-08-22T04:44:34.335Z,21.48
2022-08-22T04:47:43.887Z,21.39
2022-08-22T04:51:03.730Z,21.23
2022-08-22T04:54:43.901Z,21.22
2022-08-22T04:57:53.385Z,21.23
2022-08-22T05:01:08.551Z,21.36
2022-08-22T05:04:21.586Z,21.30
2022-08-22T05:07:38.342Z,21.06
2022-08-22T05:10:46.937Z,20.92
2022-08-22T05:13:59.067Z,20.86
2022-08-22T05:17:04.958Z,20.70
2022-08-22T05:20:13.349Z,20.92
2022-08-22T05:23:27.923Z,21.01
2022-08-22T05:26:38.679Z,20.90
2022-08-22T05:29:46.352Z,20.86
2022-08-22T05:33:11.528Z,20.80
2022-08-22T05:36:17.461Z,20.78
2022-08-22T05:39:25.355Z,20.86
2022-08-22T05:42:34.527Z,21.26
2022-08-22T05:45:40.299Z,21.65
2022-08-22T05:48:59.648Z,21.80
2022-08-22T05:52:20.902Z,21.67
2022-08-22T05:55:50.519Z,21.25
2022-08-22T05:59:08.432Z,20.82
2022-08-22T06:02:24.456Z,20.54
2022-08-22T06:05:31.655Z,20.51
2022-08-22T06:08:40.639Z,20.64
2022-08-22T06:11:55.978Z,20.84
2022-08-22T06:15:20.903Z,20.97
2022-08-22T06:18:27.397Z,20.91
2022-08-22T06:21:37.186Z,20.94
2022-08-22T06:24:42.802Z,21.19
2022-08-22T06:27:49.191Z,21.22
2022-08-22T06:30:54.809Z,21.34
2022-08-22T06:34:16.879Z,21.72
2022-08-22T06:37:28.953Z,21.89
2022-08-22T06:40:32.668Z,21.90
2022-08-22T06:43:43.787Z,21.80
2022-08-22T06:46:48.589Z,21.54
2022-08-22T06:49:57.766Z,21.02
2022-08-22T06:53:16.155Z,20.82
2022-08-22T06:56:26.005Z,20.84
2022-08-22T06:59:32.304Z,20.85
2022-08-22T07:03:01.212Z,20.89
2022-08-22T07:06:05.371Z,20.90
2022-08-22T07:09:26.523Z,20.95
2022-08-22T07:12:33.555Z,20.95
2022-08-22T07:15:41.092Z,21.15
2022-08-22T07:18:51.595Z,21.41
2022-08-22T07:21:55.636Z,21.48
2022-08-22T07:25:05.317Z,21.30
2022-08-22T07:28:51.186Z,21.09
2022-08-22T07:32:03.906Z,20.75
2022-08-22T07:35:13.980Z,20.65
2022-08-22T07:38:35.688Z,20.55
2022-08-22T07:42:00.291Z,20.28
2022-08-22T07:45:47.578Z,20.06
2022-08-22T07:49:09.889Z,19.90
2022-08-22T07:52:14.606Z,19.91
2022-08-22T07:55:23.939Z,20.21
2022-08-22T07:58:30.415Z,20.47
2022-08-22T08:01:34.784Z,20.67
2022-08-22T08:04:40.626Z,20.93
2022-08-22T08:07:46.295Z,21.20
2022-08-22T08:10:51.842Z,21.21
2022-08-22T08:14:01.388Z,21.16
2022-08-22T08:17:11.202Z,21.13
2022-08-22T08:20:19.116Z,21.26
2022-08-22T08:23:23.983Z,21.36
2022-08-22T08:27:01.953Z,21.47
2022-08-22T08:30:19.983Z,21.61
2022-08-22T08:33:26.813Z,21.62
2022-08-22T08:36:45.234Z,21.71
2022-08-22T08:39:55.320Z,21.79
2022-08-22T08:43:30.460Z,21.83
2022-08-22T08:46:33.575Z,21.79
2022-08-22T08:49:43.516Z,21.84
2022-08-22T08:53:10.500Z,21.78
2022-08-22T08:56:31.113Z,21.68
2022-08-22T08:59:48.017Z,21.46
2022-08-22T09:03:31.099Z,21.24
2022-08-22T09:06:52.700Z,21.16
2022-08-22T09:10:21.381Z,21.21
2022-08-22T09:13:42.259Z,21.35
2022-08-22T09:17:28.082Z,21.42
2022-08-22T09:21:08.444Z,21.51
2022-08-22T09:24:45.288Z,21.68
2022-08-22T09:28:01.118Z,21.73
2022-08-22T09:31:21.961Z,21.78
2022-08-22T09:35:01.165Z,21.92
2022-08-22T09:38:48.876Z,22.00
2022-08-22T09:42:18.129Z,22.03
2022-08-22T09:45:39.897Z,22.06
2022-08-22T09:48:53.568Z,21.99
2022-08-22T09:52:34.133Z,21.83
2022-08-22T09:55:51.396Z,21.59
2022-08-22T09:59:09.832Z,21.52
2022-08-22T10:02:36.496Z,21.58
2022-08-22T10:05:54.932Z,21.58
2022-08-22T10:09:06.194Z,21.58
2022-08-22T10:12:18.223Z,21.44
2022-08-22T10:15:43.598Z,21.41
2022-08-22T10:19:14.011Z,21.47
2022-08-22T10:22:39.941Z,21.49
2022-08-22T10:25:50.642Z,21.40
2022-08-22T10:29:26.957Z,21.37
2022-08-22T10:32:48.743Z,21.25
2022-08-22T10:35:52.086Z,21.15
2022-08-22T10:39:01.345Z,21.05
2022-08-22T10:42:35.435Z,20.91
2022-08-22T10:45:44.753Z,20.81
2022-08-22T10:49:05.904Z,20.73
2022-08-22T10:52:32.950Z,20.58
2022-08-22T10:55:40.328Z,20.36
2022-08-22T10:58:56.863Z,20.17
2022-08-22T11:02:31.419Z,19.97
2022-08-22T11:05:44.547Z,19.76
2022-08-22T11:09:01.508Z,19.58
2022-08-22T11:12:35.454Z,19.43
2022-08-22T11:15:57.792Z,19.19
2022-08-22T11:19:15.994Z,19.02
2022-08-22T11:22:43.587Z,18.84
2022-08-22T11:26:13.234Z,18.66
2022-08-22T11:29:25.475Z,18.50
2022-08-22T11:33:02.178Z,18.26
2022-08-22T11:36:31.953Z,18.06
2022-08-22T11:39:40.819Z,17.87
2022-08-22T11:43:01.021Z,17.75
2022-08-22T11:46:30.696Z,17.60
2022-08-22T11:50:13.303Z,17.44
2022-08-22T11:53:33.502Z,17.30
2022-08-22T11:56:45.604Z,17.22
2022-08-22T12:00:13.532Z,17.11
2022-08-22T12:03:38.267Z,17.00
2022-08-22T12:06:54.529Z,16.92
2022-08-22T12:10:07.694Z,16.81
2022-08-22T12:13:38.838Z,16.71
2022-08-22T12:17:12.927Z,16.65
2022-08-22T12:20:46.655Z,16.55
2022-08-22T12:24:20.882Z,16.48
2022-08-22T12:27:29.124Z,16.36
2022-08-22T12:31:05.171Z,16.23
2022-08-22T12:34:27.600Z,16.12
2022-08-22T12:37:53.888Z,16.00
2022-08-22T12:41:28.445Z,15.95
2022-08-22T12:45:08.121Z,15.86
2022-08-22T12:48:43.153Z,15.79
2022-08-22T12:51:59.854Z,15.72
2022-08-22T12:55:34.781Z,15.70
2022-08-22T12:58:43.760Z,15.70
2022-08-22T13:01:50.659Z,15.65
2022-08-22T13:04:58.945Z,15.57
2022-08-22T13:08:10.818Z,15.49
2022-08-22T13:11:16.775Z,15.41
2022-08-22T13:14:28.630Z,15.35
2022-08-22T13:17:33.095Z,15.32
2022-08-22T13:20:43.357Z,15.39
2022-08-22T13:23:51.671Z,15.46
2022-08-22T13:27:02.931Z,15.49
2022-08-22T13:30:17.176Z,15.49
2022-08-22T13:33:27.878Z,15.48
2022-08-22T13:36:41.767Z,15.47
2022-08-22T13:40:01.853Z,15.43
2022-08-22T13:43:11.796Z,15.38
2022-08-22T13:46:17.030Z,15.32
2022-08-22T13:49:35.946Z,15.27
2022-08-22T13:52:52.431Z,15.19
2022-08-22T13:56:15.436Z,15.15
2022-08-22T13:59:52.463Z,15.10
2022-08-22T14:03:05.707Z,15.01
2022-08-22T14:06:37.847Z,15.01
2022-08-22T14:09:54.541Z,14.98
2022-08-22T14:12:57.662Z,14.96
2022-08-22T14:16:07.592Z,14.92
2022-08-22T14:19:24.368Z,14.85
2022-08-22T14:22:36.087Z,14.78
2022-08-22T14:25:42.192Z,14.72
2022-08-22T14:28:45.772Z,14.64
2022-08-22T14:32:06.002Z,14.52
2022-08-22T14:35:34.567Z,14.35
2022-08-22T14:38:46.264Z,14.17
2022-08-22T14:42:00.324Z,14.00
2022-08-22T14:45:19.964Z,13.71
2022-08-22T14:48:33.176Z,13.47
2022-08-22T14:51:38.680Z,13.38
2022-08-22T14:54:42.541Z,13.30
2022-08-22T14:57:57.955Z,13.24
2022-08-22T15:01:12.186Z,13.20
2022-08-22T15:04:44.847Z,13.16
2022-08-22T15:08:02.411Z,13.13
2022-08-22T15:11:14.177Z,13.08
2022-08-22T15:14:25.149Z,13.03
2022-08-22T15:17:50.982Z,12.95
2022-08-22T15:21:08.727Z,12.87
2022-08-22T15:24:15.464Z,12.79
2022-08-22T15:27:22.015Z,12.77
2022-08-22T15:30:33.579Z,12.74
2022-08-22T15:33:46.597Z,12.74
2022-08-22T15:37:19.172Z,12.74
2022-08-22T15:40:44.419Z,12.72
2022-08-22T15:43:52.643Z,12.76
2022-08-22T15:47:35.015Z,12.78
2022-08-22T15:51:01.649Z,12.79
2022-08-22T15:54:25.394Z,12.82
2022-08-22T15:57:30.921Z,12.86
2022-08-22T16:00:36.090Z,12.92
2022-08-22T16:04:14.641Z,13.01
2022-08-22T16:07:41.560Z,13.10
2022-08-22T16:10:54.194Z,13.14
2022-08-22T16:14:19.021Z,13.24
2022-08-22T16:17:30.583Z,13.30
2022-08-22T16:20:33.551Z,13.33
2022-08-22T16:23:51.938Z,13.35
2022-08-22T16:26:55.112Z,13.30
2022-08-22T16:30:09.241Z,13.26
2022-08-22T16:33:28.216Z,13.22
2022-08-22T16:37:00.820Z,13.23
2022-08-22T16:40:07.668Z,13.20
2022-08-22T16:43:18.536Z,13.13
2022-08-22T16:46:44.556Z,13.06
2022-08-22T16:49:50.288Z,12.97
2022-08-22T16:53:05.406Z,12.88
2022-08-22T16:56:40.336Z,12.80
2022-08-22T17:00:12.035Z,12.71
2022-08-22T17:03:21.096Z,12.64
2022-08-22T17:06:45.691Z,12.61
2022-08-22T17:10:12.201Z,12.59
2022-08-22T17:13:15.564Z,12.60
2022-08-22T17:16:31.626Z,12.62
2022-08-22T17:20:21.765Z,12.66
2022-08-22T17:24:32.090Z,12.69
2022-08-22T17:27:41.507Z,12.68
2022-08-22T17:31:12.637Z,12.65
2022-08-22T17:34:29.496Z,12.62
2022-08-22T17:37:38.318Z,12.53
2022-08-22T17:41:04.521Z,12.49
2022-08-22T17:44:52.294Z,12.49
2022-08-22T17:48:13.538Z,12.48
2022-08-22T17:51:44.325Z,12.48
2022-08-22T17:55:00.331Z,12.45
2022-08-22T17:58:31.595Z,12.45
2022-08-22T18:01:56.873Z,12.48
2022-08-22T18:05:11.042Z,12.44
2022-08-22T18:12:05.640Z,12.36
2022-08-22T18:15:26.691Z,12.27
2022-08-22T18:18:40.194Z,12.20
2022-08-22T18:22:10.111Z,12.17
2022-08-22T18:25:20.030Z,12.15
2022-08-22T18:28:25.532Z,12.14
2022-08-22T18:31:41.514Z,12.13
2022-08-22T18:35:05.865Z,12.09
2022-08-22T18:38:24.254Z,12.05
2022-08-22T18:41:46.291Z,11.95
2022-08-22T18:44:49.309Z,11.82
2022-08-22T18:47:57.354Z,11.73
2022-08-22T18:51:22.438Z,11.62
2022-08-22T18:54:53.713Z,11.53
2022-08-22T18:57:56.667Z,11.43
2022-08-22T19:01:42.799Z,11.31
2022-08-22T19:05:21.080Z,11.17
2022-08-22T19:08:24.043Z,11.03
2022-08-22T19:11:49.654Z,10.93
2022-08-22T19:15:11.412Z,10.86
2022-08-22T19:18:43.404Z,10.79
2022-08-22T19:22:21.010Z,10.75
2022-08-22T19:25:29.382Z,10.73
2022-08-22T19:28:41.281Z,10.71
2022-08-22T19:31:50.821Z,10.73
2022-08-22T19:35:20.416Z,10.81
2022-08-22T19:38:54.333Z,10.90
2022-08-22T19:41:58.714Z,10.98
2022-08-22T19:45:27.061Z,11.07
2022-08-22T19:48:34.176Z,11.07
2022-08-22T19:51:37.316Z,11.10
2022-08-22T19:54:53.684Z,11.13
2022-08-22T19:58:32.496Z,11.14
2022-08-22T20:02:05.318Z,11.13
2022-08-22T20:05:24.278Z,11.12
2022-08-22T20:08:57.276Z,11.09
2022-08-22T20:12:24.564Z,11.05
2022-08-22T20:15:31.003Z,10.97
2022-08-22T20:19:06.554Z,10.95
2022-08-22T20:22:31.910Z,10.92
2022-08-22T20:25:51.205Z,10.91
2022-08-22T20:28:55.592Z,10.91
2022-08-22T20:31:59.329Z,10.89
2022-08-22T20:35:05.542Z,10.87
2022-08-22T20:38:18.373Z,10.85
2022-08-22T20:41:56.972Z,10.81
2022-08-22T20:45:01.493Z,10.79
2022-08-22T20:48:09.796Z,10.75
2022-08-22T20:51:18.541Z,10.71
2022-08-22T20:54:25.254Z,10.67
2022-08-22T20:57:29.523Z,10.68
2022-08-22T21:00:41.218Z,10.67
2022-08-22T21:03:48.300Z,10.63
2022-08-22T21:07:03.640Z,10.59
2022-08-22T21:10:38.658Z,10.53
2022-08-22T21:13:41.689Z,10.48
2022-08-22T21:16:44.899Z,10.42
2022-08-22T21:19:48.186Z,10.40
2022-08-22T21:22:51.750Z,10.43
2022-08-22T21:26:03.481Z,10.43
2022-08-22T21:29:21.837Z,10.45
2022-08-22T21:32:30.642Z,10.42
2022-08-22T21:35:34.762Z,10.42
2022-08-22T21:38:39.078Z,10.41
2022-08-22T21:41:54.106Z,10.42
2022-08-22T21:45:03.344Z,10.38
2022-08-22T21:48:44.320Z,10.41
2022-08-22T21:51:47.494Z,10.37
2022-08-22T21:54:50.539Z,10.38
2022-08-22T21:58:36.270Z,10.43
2022-08-22T22:01:42.758Z,10.47
2022-08-22T22:04:48.874Z,10.47
2022-08-22T22:07:52.667Z,10.49
2022-08-22T22:11:00.136Z,10.50
2022-08-22T22:14:03.289Z,10.51
2022-08-22T22:17:06.431Z,10.53
2022-08-22T22:20:10.099Z,10.56
2022-08-22T22:23:13.232Z,10.82
2022-08-22T22:26:16.420Z,12.75
2022-08-22T22:29:19.550Z,15.74
2022-08-22T22:32:22.599Z,18.28
2022-08-22T22:35:25.709Z,20.37
2022-08-22T22:38:28.794Z,22.03
2022-08-22T22:41:33.362Z,23.34
2022-08-22T22:44:36.605Z,24.46
2022-08-22T22:47:39.911Z,25.40
2022-08-22T22:50:44.726Z,25.99
2022-08-22T22:53:48.663Z,26.51
2022-08-22T22:56:52.758Z,27.27
2022-08-22T22:59:55.817Z,27.56
2022-08-22T23:03:03.081Z,28.53
2022-08-22T23:06:19.008Z,29.66
2022-08-22T23:09:22.126Z,29.88
2022-08-22T23:12:41.566Z,29.87
2022-08-22T23:15:44.562Z,30.53
2022-08-22T23:18:47.968Z,30.44
2022-08-22T23:21:52.391Z,30.78
2022-08-22T23:24:55.536Z,30.96
2022-08-22T23:27:58.542Z,31.16
2022-08-22T23:31:35.296Z,32.40
2022-08-22T23:34:46.509Z,31.94
2022-08-22T23:37:49.523Z,31.50
2022-08-22T23:40:52.579Z,31.79
2022-08-22T23:43:56.432Z,31.33
2022-08-22T23:47:00.985Z,31.22
2022-08-22T23:50:05.769Z,31.38
2022-08-22T23:53:09.437Z,31.75
2022-08-22T23:56:19.416Z,32.52
2022-08-22T23:59:30.069Z,32.40
